createdAt,value
2017-04-04T00:00:23.831Z,1026.925
2017-04-04T00:03:28.556Z,1026.844
2017-04-04T00:06:33.081Z,1026.823
2017-04-04T00:09:37.316Z,1026.791
2017-04-04T00:12:41.233Z,1026.790
2017-04-04T00:15:46.882Z,1026.800
2017-04-04T00:21:56.121Z,1026.795
2017-04-04T00:25:00.367Z,1026.799
2017-04-04T00:28:05.416Z,1026.792
2017-04-04T00:31:09.679Z,1026.799
2017-04-04T00:34:14.120Z,1026.801
2017-04-04T00:37:18.586Z,1026.819
2017-04-04T00:40:23.077Z,1026.824
2017-04-04T00:43:27.105Z,1026.834
2017-04-04T00:46:31.777Z,1026.848
2017-04-04T00:49:36.026Z,1026.873
2017-04-04T00:52:40.392Z,1026.871
2017-04-04T00:55:46.086Z,1026.884
2017-04-04T00:58:50.737Z,1026.915
2017-04-04T01:01:55.346Z,1026.918
2017-04-04T01:05:00.507Z,1026.977
2017-04-04T01:08:04.589Z,1026.976
2017-04-04T01:11:08.854Z,1026.974
2017-04-04T01:14:12.838Z,1026.955
2017-04-04T01:17:17.080Z,1026.964
2017-04-04T01:20:21.431Z,1026.947
2017-04-04T01:23:25.665Z,1026.983
2017-04-04T01:26:30.115Z,1026.961
2017-04-04T01:29:34.382Z,1026.956
2017-04-04T01:35:43.537Z,1026.937
2017-04-04T01:38:47.730Z,1026.935
2017-04-04T01:41:52.923Z,1026.930
2017-04-04T01:44:57.018Z,1026.929
2017-04-04T01:48:01.301Z,1026.952
2017-04-04T01:54:10.166Z,1026.923
2017-04-04T01:57:14.175Z,1026.914
2017-04-04T02:03:23.954Z,1026.925
2017-04-04T02:06:28.276Z,1026.968
2017-04-04T02:09:32.706Z,1026.973
2017-04-04T02:12:37.122Z,1026.964
2017-04-04T02:15:42.710Z,1026.973
2017-04-04T02:18:46.904Z,1026.986
2017-04-04T02:21:51.875Z,1027.015
2017-04-04T02:24:55.828Z,1027.034
2017-04-04T02:28:00.197Z,1027.059
2017-04-04T02:31:05.446Z,1027.028
2017-04-04T02:34:10.797Z,1027.036
2017-04-04T02:37:15.076Z,1027.020
2017-04-04T02:40:20.153Z,1027.007
2017-04-04T02:43:24.384Z,1026.939
2017-04-04T02:46:28.698Z,1026.942
2017-04-04T02:49:34.100Z,1026.919
2017-04-04T02:52:39.447Z,1026.918
2017-04-04T02:55:43.705Z,1026.879
2017-04-04T02:58:48.112Z,1026.899
2017-04-04T03:01:53.288Z,1026.898
2017-04-04T03:04:51.301Z,1026.886
2017-04-04T03:08:02.375Z,1026.898
2017-04-04T03:11:06.882Z,1026.900
2017-04-04T03:14:11.151Z,1026.903
2017-04-04T03:17:15.651Z,1026.919
2017-04-04T03:20:20.431Z,1026.950
2017-04-04T03:23:24.754Z,1026.916
2017-04-04T03:26:29.046Z,1026.872
2017-04-04T03:29:33.637Z,1026.840
2017-04-04T03:32:37.954Z,1026.862
2017-04-04T03:35:42.399Z,1026.839
2017-04-04T03:38:46.416Z,1026.774
2017-04-04T03:41:50.499Z,1026.730
2017-04-04T03:44:54.477Z,1026.723
2017-04-04T03:47:58.320Z,1026.699
2017-04-04T03:51:02.355Z,1026.677
2017-04-04T03:57:12.170Z,1026.594
2017-04-04T04:00:16.605Z,1026.572
2017-04-04T04:03:15.043Z,1026.553
2017-04-04T04:06:26.165Z,1026.572
2017-04-04T04:09:30.274Z,1026.554
2017-04-04T04:15:39.926Z,1026.612
2017-04-04T04:18:43.784Z,1026.568
2017-04-04T04:21:48.133Z,1026.559
2017-04-04T04:24:52.233Z,1026.542
2017-04-04T04:27:56.976Z,1026.515
2017-04-04T04:31:00.960Z,1026.538
2017-04-04T04:34:06.443Z,1026.514
2017-04-04T04:37:10.522Z,1026.517
2017-04-04T04:40:15.060Z,1026.502
2017-04-04T04:46:24.487Z,1026.508
2017-04-04T04:49:30.083Z,1026.548
2017-04-04T04:55:40.015Z,1026.602
2017-04-04T04:58:43.989Z,1026.567
2017-04-04T05:01:49.233Z,1026.576
2017-04-04T05:04:53.028Z,1026.563
2017-04-04T05:07:57.328Z,1026.525
2017-04-04T05:11:01.263Z,1026.526
2017-04-04T05:14:05.421Z,1026.517
2017-04-04T05:17:10.699Z,1026.483
2017-04-04T05:23:18.147Z,1026.471
2017-04-04T05:26:22.356Z,1026.468
2017-04-04T05:29:27.478Z,1026.486
2017-04-04T05:32:25.922Z,1026.463
2017-04-04T05:38:36.879Z,1026.509
2017-04-04T05:41:42.187Z,1026.480
2017-04-04T05:44:47.719Z,1026.515
2017-04-04T05:47:52.977Z,1026.520
2017-04-04T05:50:58.397Z,1026.560
2017-04-04T05:54:08.670Z,1026.577
2017-04-04T05:57:13.210Z,1026.570
2017-04-04T06:00:17.738Z,1026.558
2017-04-04T06:03:21.669Z,1026.554
2017-04-04T06:06:25.841Z,1026.636
2017-04-04T06:09:30.143Z,1026.624
2017-04-04T06:15:38.715Z,1026.617
2017-04-04T06:18:42.744Z,1026.557
2017-04-04T06:21:46.508Z,1026.560
2017-04-04T06:27:55.750Z,1026.634
2017-04-04T06:30:59.952Z,1026.667
2017-04-04T06:34:05.459Z,1026.651
2017-04-04T06:37:09.991Z,1026.623
2017-04-04T06:43:20.107Z,1026.532
2017-04-04T06:46:25.772Z,1026.530
2017-04-04T06:49:30.452Z,1026.525
2017-04-04T06:52:35.155Z,1026.538
2017-04-04T06:55:39.725Z,1026.500
2017-04-04T07:01:49.149Z,1026.581
2017-04-04T07:04:54.668Z,1026.618
2017-04-04T07:07:59.007Z,1026.586
2017-04-04T07:14:08.014Z,1026.458
2017-04-04T07:17:13.406Z,1026.487
2017-04-04T07:20:17.936Z,1026.553
2017-04-04T07:23:22.441Z,1026.543
2017-04-04T07:26:26.160Z,1026.512
2017-04-04T07:32:36.409Z,1026.479
2017-04-04T07:35:41.113Z,1026.548
2017-04-04T07:38:45.948Z,1026.576
2017-04-04T07:41:50.550Z,1026.587
2017-04-04T07:44:56.156Z,1026.612
2017-04-04T07:48:00.173Z,1026.631
2017-04-04T07:54:09.930Z,1026.601
2017-04-04T07:57:14.313Z,1026.625
2017-04-04T08:00:18.568Z,1026.606
2017-04-04T08:09:32.131Z,1026.524
2017-04-04T08:12:36.194Z,1026.504
2017-04-04T08:15:40.575Z,1026.480
2017-04-04T08:18:44.503Z,1026.501
2017-04-04T08:21:49.619Z,1026.570
2017-04-04T08:24:55.313Z,1026.555
2017-04-04T08:28:00.774Z,1026.605
2017-04-04T08:34:10.426Z,1026.564
2017-04-04T08:37:15.139Z,1026.549
2017-04-04T08:40:20.021Z,1026.553
2017-04-04T08:43:24.528Z,1026.602
2017-04-04T08:46:29.811Z,1026.580
2017-04-04T08:49:34.514Z,1026.580
2017-04-04T08:52:39.440Z,1026.584
2017-04-04T08:55:44.254Z,1026.615
2017-04-04T08:58:49.099Z,1026.631
2017-04-04T09:01:53.300Z,1026.632
2017-04-04T09:04:57.914Z,1026.617
2017-04-04T09:08:01.987Z,1026.625
2017-04-04T09:14:11.195Z,1026.690
2017-04-04T09:17:15.703Z,1026.676
2017-04-04T09:23:25.886Z,1026.633
2017-04-04T09:26:30.775Z,1026.628
2017-04-04T09:29:35.536Z,1026.596
2017-04-04T09:32:40.073Z,1026.575
2017-04-04T09:35:44.862Z,1026.559
2017-04-04T09:38:49.626Z,1026.543
2017-04-04T09:45:00.861Z,1026.500
2017-04-04T09:48:05.519Z,1026.462
2017-04-04T09:51:09.661Z,1026.496
2017-04-04T09:54:14.581Z,1026.517
2017-04-04T09:57:19.006Z,1026.500
2017-04-04T10:00:25.042Z,1026.436
2017-04-04T10:03:29.058Z,1026.416
2017-04-04T10:06:34.520Z,1026.388
2017-04-04T10:09:38.617Z,1026.342
2017-04-04T10:12:43.462Z,1026.164
2017-04-04T10:15:48.431Z,1026.097
2017-04-04T10:18:53.738Z,1026.057
2017-04-04T10:21:58.744Z,1026.027
2017-04-04T10:25:03.266Z,1025.975
2017-04-04T10:28:08.121Z,1025.914
2017-04-04T10:31:13.385Z,1025.895
2017-04-04T10:34:17.927Z,1025.868
2017-04-04T10:40:29.513Z,1025.767
2017-04-04T10:43:34.377Z,1025.762
2017-04-04T10:46:40.573Z,1025.731
2017-04-04T10:49:45.331Z,1025.738
2017-04-04T10:52:50.281Z,1025.729
2017-04-04T10:55:55.198Z,1025.707
2017-04-04T10:59:01.279Z,1025.653
2017-04-04T11:02:06.144Z,1025.674
2017-04-04T11:08:17.010Z,1025.636
2017-04-04T11:11:21.555Z,1025.659
2017-04-04T11:14:27.152Z,1025.669
2017-04-04T11:17:32.068Z,1025.698
2017-04-04T11:20:37.798Z,1025.736
2017-04-04T11:23:43.247Z,1025.706
2017-04-04T11:26:47.920Z,1025.663
2017-04-04T11:29:52.616Z,1025.611
2017-04-04T11:32:57.644Z,1025.629
2017-04-04T11:36:03.218Z,1025.576
2017-04-04T11:39:08.112Z,1025.554
2017-04-04T11:42:12.715Z,1025.542
2017-04-04T11:48:22.327Z,1025.475
2017-04-04T11:54:33.027Z,1025.425
2017-04-04T11:57:37.515Z,1025.428
2017-04-04T12:00:42.481Z,1025.445
2017-04-04T12:03:47.362Z,1025.316
2017-04-04T12:06:52.783Z,1025.313
2017-04-04T12:09:57.807Z,1025.325
2017-04-04T12:16:08.682Z,1025.350
2017-04-04T12:19:13.427Z,1025.331
2017-04-04T12:22:18.130Z,1025.363
2017-04-04T12:25:23.170Z,1025.317
2017-04-04T12:28:28.058Z,1025.278
2017-04-04T12:31:32.681Z,1025.123
2017-04-04T12:37:45.630Z,1024.955
2017-04-04T12:40:51.122Z,1024.940
2017-04-04T12:43:56.619Z,1024.907
2017-04-04T12:47:01.805Z,1024.887
2017-04-04T12:50:08.002Z,1024.780
2017-04-04T12:53:13.586Z,1024.712
2017-04-04T12:56:18.993Z,1024.679
2017-04-04T12:59:24.214Z,1024.696
2017-04-04T13:02:29.758Z,1024.645
2017-04-04T13:05:36.036Z,1024.638
2017-04-04T13:08:41.119Z,1024.664
2017-04-04T13:11:46.412Z,1024.704
2017-04-04T13:14:51.764Z,1024.713
2017-04-04T13:17:58.057Z,1024.597
2017-04-04T13:21:03.395Z,1024.673
2017-04-04T13:24:08.262Z,1024.653
2017-04-04T13:27:13.299Z,1024.659
2017-04-04T13:30:17.921Z,1024.661
2017-04-04T13:33:23.267Z,1024.661
2017-04-04T13:36:28.121Z,1024.655
2017-04-04T13:39:34.075Z,1024.622
2017-04-04T13:42:39.129Z,1024.629
2017-04-04T13:45:44.316Z,1024.627
2017-04-04T13:48:49.484Z,1024.603
2017-04-04T13:51:55.455Z,1024.564
2017-04-04T13:55:00.673Z,1024.524
2017-04-04T14:01:11.956Z,1024.432
2017-04-04T14:04:16.907Z,1024.422
2017-04-04T14:07:21.621Z,1024.392
2017-04-04T14:10:27.789Z,1024.438
2017-04-04T14:13:32.693Z,1024.443
2017-04-04T14:16:37.620Z,1024.417
2017-04-04T14:19:42.758Z,1024.351
2017-04-04T14:22:48.251Z,1024.325
2017-04-04T14:25:53.040Z,1024.284
2017-04-04T14:28:58.381Z,1024.241
2017-04-04T14:32:03.309Z,1024.221
2017-04-04T14:35:09.238Z,1024.213
2017-04-04T14:38:09.442Z,1024.194
2017-04-04T14:41:21.244Z,1024.212
2017-04-04T14:44:26.512Z,1024.208
2017-04-04T14:47:31.627Z,1024.240
2017-04-04T14:50:36.796Z,1024.245
2017-04-04T14:53:41.342Z,1024.249
2017-04-04T14:56:47.351Z,1024.283
2017-04-04T14:59:52.336Z,1024.279
2017-04-04T15:02:57.162Z,1024.270
2017-04-04T15:06:01.885Z,1024.217
2017-04-04T15:09:07.112Z,1024.176
2017-04-04T15:12:12.555Z,1024.193
2017-04-04T15:15:17.591Z,1024.194
2017-04-04T15:18:23.786Z,1024.173
2017-04-04T15:24:35.157Z,1024.204
2017-04-04T15:27:40.059Z,1024.188
2017-04-04T15:30:44.835Z,1024.136
2017-04-04T15:33:49.229Z,1024.078
2017-04-04T15:40:00.312Z,1024.056
2017-04-04T15:43:05.160Z,1024.023
2017-04-04T15:46:11.506Z,1023.993
2017-04-04T15:49:15.342Z,1023.937
2017-04-04T15:55:25.911Z,1023.981
2017-04-04T15:58:31.624Z,1023.965
2017-04-04T16:04:41.636Z,1024.009
2017-04-04T16:07:46.726Z,1023.994
2017-04-04T16:10:52.843Z,1023.974
2017-04-04T16:13:57.430Z,1024.051
2017-04-04T16:17:02.359Z,1024.081
2017-04-04T16:20:07.108Z,1024.139
2017-04-04T16:23:06.154Z,1024.154
2017-04-04T16:26:17.837Z,1024.184
2017-04-04T16:29:23.119Z,1024.222
2017-04-04T16:32:27.756Z,1024.229
2017-04-04T16:35:32.709Z,1024.174
2017-04-04T16:38:37.122Z,1024.150
2017-04-04T16:41:43.066Z,1024.176
2017-04-04T16:44:47.556Z,1024.208
2017-04-04T16:47:52.196Z,1024.251
2017-04-04T16:54:03.201Z,1024.261
2017-04-04T16:57:02.676Z,1024.253
2017-04-04T17:00:13.916Z,1024.287
2017-04-04T17:03:13.482Z,1024.291
2017-04-04T17:06:19.014Z,1024.318
2017-04-04T17:09:24.788Z,1024.312
2017-04-04T17:12:36.573Z,1024.315
2017-04-04T17:15:41.505Z,1024.310
2017-04-04T17:18:41.745Z,1024.309
2017-04-04T17:21:47.565Z,1024.315
2017-04-04T17:24:53.274Z,1024.331
2017-04-04T17:28:04.971Z,1024.345
2017-04-04T17:34:15.002Z,1024.318
2017-04-04T17:40:25.095Z,1024.322
2017-04-04T17:43:30.030Z,1024.332
2017-04-04T17:46:35.764Z,1024.316
2017-04-04T17:49:39.859Z,1024.281
2017-04-04T17:58:55.834Z,1024.367
2017-04-04T18:02:00.509Z,1024.426
2017-04-04T18:05:05.311Z,1024.450
2017-04-04T18:11:15.810Z,1024.492
2017-04-04T18:14:20.690Z,1024.519
2017-04-04T18:17:25.562Z,1024.534
2017-04-04T18:20:30.857Z,1024.543
2017-04-04T18:23:35.948Z,1024.530
2017-04-04T18:26:40.716Z,1024.519
2017-04-04T18:29:45.438Z,1024.475
2017-04-04T18:32:50.334Z,1024.522
2017-04-04T18:35:56.151Z,1024.552
2017-04-04T18:39:01.150Z,1024.605
2017-04-04T18:42:06.394Z,1024.642
2017-04-04T18:45:11.136Z,1024.663
2017-04-04T18:48:16.100Z,1024.702
2017-04-04T18:51:21.546Z,1024.749
2017-04-04T18:57:32.904Z,1024.789
2017-04-04T19:00:36.881Z,1024.792
2017-04-04T19:03:41.632Z,1024.818
2017-04-04T19:06:40.603Z,1024.827
2017-04-04T19:09:52.001Z,1024.816
2017-04-04T19:16:01.930Z,1024.724
2017-04-04T19:19:06.230Z,1024.686
2017-04-04T19:22:11.767Z,1024.677
2017-04-04T19:25:16.094Z,1024.697
2017-04-04T19:28:21.421Z,1024.759
2017-04-04T19:31:27.201Z,1024.735
2017-04-04T19:34:32.291Z,1024.743
2017-04-04T19:37:36.264Z,1024.748
2017-04-04T19:40:42.146Z,1024.756
2017-04-04T19:43:46.913Z,1024.772
2017-04-04T19:46:52.045Z,1024.762
2017-04-04T19:49:56.658Z,1024.727
2017-04-04T19:53:01.227Z,1024.723
2017-04-04T19:56:05.948Z,1024.715
2017-04-04T19:59:11.461Z,1024.741
2017-04-04T20:02:16.128Z,1024.757
2017-04-04T20:05:20.647Z,1024.773
2017-04-04T20:08:25.057Z,1024.773
2017-04-04T20:11:29.563Z,1024.752
2017-04-04T20:14:34.329Z,1024.747
2017-04-04T20:20:42.766Z,1024.731
2017-04-04T20:23:47.473Z,1024.776
2017-04-04T20:26:52.814Z,1024.771
2017-04-04T20:29:58.422Z,1024.769
2017-04-04T20:33:02.678Z,1024.780
2017-04-04T20:36:07.278Z,1024.827
2017-04-04T20:39:11.676Z,1024.839
2017-04-04T20:42:16.186Z,1024.864
2017-04-04T20:45:21.913Z,1024.849
2017-04-04T20:48:26.965Z,1024.884
2017-04-04T20:51:31.450Z,1024.919
2017-04-04T20:54:37.233Z,1024.869
2017-04-04T20:57:42.185Z,1024.868
2017-04-04T21:00:46.900Z,1024.867
2017-04-04T21:03:51.607Z,1024.843
2017-04-04T21:06:56.055Z,1024.846
2017-04-04T21:10:00.514Z,1024.815
2017-04-04T21:13:04.834Z,1024.781
2017-04-04T21:16:10.461Z,1024.799
2017-04-04T21:19:15.795Z,1024.792
2017-04-04T21:22:21.378Z,1024.744
2017-04-04T21:25:25.366Z,1024.702
2017-04-04T21:28:30.003Z,1024.742
2017-04-04T21:31:34.320Z,1024.758
2017-04-04T21:34:39.647Z,1024.698
2017-04-04T21:40:50.468Z,1024.681
2017-04-04T21:43:55.027Z,1024.662
2017-04-04T21:46:59.181Z,1024.631
2017-04-04T21:50:04.975Z,1024.613
2017-04-04T21:56:15.181Z,1024.522
2017-04-04T22:05:29.617Z,1024.484
2017-04-04T22:08:34.149Z,1024.473
2017-04-04T22:11:39.506Z,1024.470
2017-04-04T22:14:44.013Z,1024.458
2017-04-04T22:17:48.849Z,1024.485
2017-04-04T22:20:53.079Z,1024.497
2017-04-04T22:23:57.533Z,1024.456
2017-04-04T22:27:01.368Z,1024.459
2017-04-04T22:33:11.837Z,1024.434
2017-04-04T22:36:17.387Z,1024.384
2017-04-04T22:39:22.123Z,1024.347
2017-04-04T22:42:26.720Z,1024.314
2017-04-04T22:45:31.163Z,1024.261
2017-04-04T22:48:34.998Z,1024.233
2017-04-04T22:54:46.096Z,1024.191
2017-04-04T22:57:51.166Z,1024.126
2017-04-04T23:04:02.007Z,1024.123
2017-04-04T23:07:06.295Z,1024.097
2017-04-04T23:10:10.659Z,1024.080
2017-04-04T23:13:15.110Z,1024.060
2017-04-04T23:16:19.251Z,1024.008
2017-04-04T23:19:23.785Z,1023.986
2017-04-04T23:22:28.051Z,1023.969
2017-04-04T23:25:32.203Z,1023.924
2017-04-04T23:28:36.659Z,1023.955
2017-04-04T23:31:41.058Z,1023.957
2017-04-04T23:34:45.826Z,1023.927
2017-04-04T23:40:55.843Z,1023.839
2017-04-04T23:44:00.009Z,1023.834
2017-04-04T23:50:11.215Z,1023.864
2017-04-04T23:53:15.004Z,1023.894
2017-04-04T23:56:19.458Z,1023.935
2017-04-04T23:59:24.770Z,1023.914
